ADDS METAR Data INFO
IDs: Format: Raw Decoded Include TAF

Data at: 0928 UTC 17 Oct 2017

KEKM 170052Z 00000KT 10SM CLR 08/05 A3025 RMK AO2 LAST
KEKM 162352Z 00000KT 10SM CLR 09/05 A3025 RMK AO2
KEKM 162252Z 00000KT 10SM CLR 13/03 A3025 RMK AO2
KEKM 162152Z 25005KT 10SM FEW050 14/02 A3025 RMK AO2
KEKM 162052Z 28006KT 10SM FEW050 15/02 A3026 RMK AO2
KEKM 161952Z 28006KT 10SM SCT050 15/02 A3027 RMK AO2
KEKM 161852Z 28006KT 10SM SCT046 13/03 A3028 RMK AO2
KEKM 161752Z 27008KT 10SM SCT042 14/04 A3030 RMK AO2
KEKM 161650Z 28009KT 10SM SCT036 BKN047 13/05 A3031 RMK AO2
KEKM 161550Z 26009KT 10SM BKN030 BKN040 12/06 A3031 RMK AO2
KEKM 161450Z 26006KT 10SM SCT035 11/07 A3031 RMK AO2
KEKM 161250Z 00000KT 10SM CLR 06/06 A3029 RMK AO2
KEKM 161150Z 00000KT 10SM CLR 04/04 A3027 RMK AO2
KEKM 161050Z 00000KT 10SM CLR 05/05 A3026 RMK A02
KEKM 152152Z 31009KT 10SM SCT009 SCT019 11/08 A3008 RMK AO2 LAST